createdAt,value
2022-09-13T00:01:16.073Z,21.80
2022-09-13T00:03:44.046Z,21.90
2022-09-13T00:06:14.139Z,21.90
2022-09-13T00:08:42.571Z,21.90
2022-09-13T00:11:17.567Z,21.80
2022-09-13T00:13:47.058Z,21.80
2022-09-13T00:16:17.134Z,21.80
2022-09-13T00:18:45.312Z,21.80
2022-09-13T00:21:15.798Z,21.90
2022-09-13T00:23:45.497Z,21.80
2022-09-13T00:26:16.222Z,21.90
2022-09-13T00:28:46.451Z,21.80
2022-09-13T00:31:14.507Z,21.90
2022-09-13T00:33:42.377Z,21.80
2022-09-13T00:36:12.651Z,21.90
2022-09-13T00:38:41.361Z,21.80
2022-09-13T00:41:13.371Z,21.80
2022-09-13T00:43:49.616Z,21.90
2022-09-13T00:46:31.796Z,21.80
2022-09-13T00:49:07.059Z,21.80
2022-09-13T00:51:35.246Z,21.80
2022-09-13T00:54:05.664Z,21.90
2022-09-13T00:56:36.599Z,21.80
2022-09-13T00:59:11.681Z,21.90
2022-09-13T01:01:46.031Z,21.80
2022-09-13T01:04:14.373Z,21.80
2022-09-13T01:06:43.679Z,21.80
2022-09-13T01:09:13.358Z,21.90
2022-09-13T01:11:49.053Z,21.80
2022-09-13T01:14:19.877Z,21.80
2022-09-13T01:16:48.468Z,21.80
2022-09-13T01:19:16.515Z,21.80
2022-09-13T01:22:19.926Z,21.80
2022-09-13T01:25:07.906Z,21.80
2022-09-13T01:27:48.817Z,21.80
2022-09-13T01:30:20.675Z,21.80
2022-09-13T01:33:09.146Z,21.80
2022-09-13T01:35:48.644Z,21.80
2022-09-13T01:38:33.053Z,21.80
2022-09-13T01:41:09.364Z,21.80
2022-09-13T01:43:49.851Z,21.80
2022-09-13T01:46:24.477Z,21.80
2022-09-13T01:49:00.145Z,21.90
2022-09-13T01:51:33.331Z,21.80
2022-09-13T01:54:14.406Z,21.80
2022-09-13T01:56:50.345Z,21.80
2022-09-13T01:59:22.639Z,21.80
2022-09-13T02:01:58.442Z,21.80
2022-09-13T02:04:29.893Z,21.80
2022-09-13T02:07:03.513Z,21.80
2022-09-13T02:09:36.185Z,21.80
2022-09-13T02:12:10.027Z,21.80
2022-09-13T02:14:39.750Z,21.80
2022-09-13T02:17:13.703Z,21.80
2022-09-13T02:19:45.404Z,21.80
2022-09-13T02:22:19.174Z,21.80
2022-09-13T02:24:52.858Z,21.80
2022-09-13T02:27:23.846Z,21.80
2022-09-13T02:29:56.703Z,21.80
2022-09-13T02:32:31.492Z,21.80
2022-09-13T02:35:05.947Z,21.80
2022-09-13T02:37:37.470Z,21.80
2022-09-13T02:40:09.723Z,21.80
2022-09-13T02:42:43.732Z,21.80
2022-09-13T02:45:13.585Z,21.80
2022-09-13T02:47:53.827Z,21.80
2022-09-13T02:50:34.485Z,21.80
2022-09-13T02:53:11.934Z,21.80
2022-09-13T02:55:46.792Z,21.80
2022-09-13T02:58:24.868Z,21.80
2022-09-13T03:00:55.215Z,21.80
2022-09-13T03:03:25.551Z,21.80
2022-09-13T03:05:54.141Z,21.80
2022-09-13T03:08:23.278Z,21.80
2022-09-13T03:11:02.928Z,21.80
2022-09-13T03:13:57.862Z,21.80
2022-09-13T03:16:40.698Z,21.80
2022-09-13T03:19:26.484Z,21.80
2022-09-13T03:22:15.311Z,21.80
2022-09-13T03:24:52.601Z,21.80
2022-09-13T03:27:30.409Z,21.80
2022-09-13T03:30:04.169Z,21.80
2022-09-13T03:32:40.606Z,21.80
2022-09-13T03:35:18.181Z,21.80
2022-09-13T03:37:53.731Z,21.80
2022-09-13T03:40:27.578Z,21.80
2022-09-13T03:43:01.928Z,21.80
2022-09-13T03:45:32.621Z,21.80
2022-09-13T03:48:01.138Z,21.80
2022-09-13T03:50:30.924Z,21.80
2022-09-13T03:53:03.802Z,21.80
2022-09-13T03:55:33.791Z,21.80
2022-09-13T03:58:02.185Z,21.80
2022-09-13T04:00:30.097Z,21.70
2022-09-13T04:02:58.364Z,21.70
2022-09-13T04:05:26.308Z,21.70
2022-09-13T04:07:55.498Z,21.70
2022-09-13T04:10:24.210Z,21.70
2022-09-13T04:12:52.533Z,21.70
2022-09-13T04:15:20.365Z,21.70
2022-09-13T04:17:48.357Z,21.70
2022-09-13T04:20:16.252Z,21.70
2022-09-13T04:22:44.102Z,21.70
2022-09-13T04:25:13.281Z,21.70
2022-09-13T04:27:41.109Z,21.70
2022-09-13T04:30:09.974Z,21.70
2022-09-13T04:32:37.834Z,21.70
2022-09-13T04:35:06.380Z,21.70
2022-09-13T04:37:34.282Z,21.70
2022-09-13T04:40:02.613Z,21.70
2022-09-13T04:42:31.827Z,21.70
2022-09-13T04:44:59.837Z,21.70
2022-09-13T04:47:27.774Z,21.70
2022-09-13T04:49:55.634Z,21.70
2022-09-13T04:52:23.760Z,21.70
2022-09-13T04:54:51.788Z,21.70
2022-09-13T04:57:19.652Z,21.70
2022-09-13T04:59:48.842Z,21.70
2022-09-13T05:02:16.705Z,21.70
2022-09-13T05:04:44.510Z,21.70
2022-09-13T05:07:12.596Z,21.70
2022-09-13T05:09:40.432Z,21.70
2022-09-13T05:12:08.716Z,21.70
2022-09-13T05:14:36.515Z,21.70
2022-09-13T05:17:05.843Z,21.70
2022-09-13T05:19:33.760Z,21.70
2022-09-13T05:22:01.699Z,21.70
2022-09-13T05:24:29.595Z,21.70
2022-09-13T05:26:57.428Z,21.70
2022-09-13T05:29:25.283Z,21.70
2022-09-13T05:31:53.071Z,21.70
2022-09-13T05:34:22.286Z,21.70
2022-09-13T05:36:54.132Z,21.60
2022-09-13T05:39:39.794Z,21.70
2022-09-13T05:42:10.666Z,21.60
2022-09-13T05:44:38.469Z,21.70
2022-09-13T05:47:06.654Z,21.60
2022-09-13T05:49:49.836Z,21.70
2022-09-13T05:52:24.083Z,21.70
2022-09-13T05:54:51.944Z,21.60
2022-09-13T05:57:19.776Z,21.60
2022-09-13T05:59:48.084Z,21.60
2022-09-13T06:02:15.934Z,21.60
2022-09-13T06:04:45.806Z,21.60
2022-09-13T06:07:13.703Z,21.60
2022-09-13T06:09:41.669Z,21.60
2022-09-13T06:12:09.494Z,21.60
2022-09-13T06:14:37.326Z,21.60
2022-09-13T06:17:05.291Z,21.60
2022-09-13T06:19:33.191Z,21.60
2022-09-13T06:22:02.334Z,21.60
2022-09-13T06:24:30.179Z,21.60
2022-09-13T06:26:57.998Z,21.60
2022-09-13T06:29:25.885Z,21.60
2022-09-13T06:31:53.698Z,21.60
2022-09-13T06:34:21.565Z,21.60
2022-09-13T06:36:49.378Z,21.60
2022-09-13T06:39:18.552Z,21.60
2022-09-13T06:41:46.374Z,21.60
2022-09-13T06:44:14.397Z,21.60
2022-09-13T06:46:42.259Z,21.60
2022-09-13T06:49:11.810Z,21.60
2022-09-13T06:51:39.684Z,21.60
2022-09-13T06:54:07.637Z,21.60
2022-09-13T06:56:39.049Z,21.60
2022-09-13T06:59:08.642Z,21.60
2022-09-13T07:01:38.263Z,21.60
2022-09-13T07:04:07.741Z,21.60
2022-09-13T07:06:37.514Z,21.60
2022-09-13T07:09:07.381Z,21.60
2022-09-13T07:11:38.422Z,21.60
2022-09-13T07:14:07.462Z,21.60
2022-09-13T07:16:37.709Z,21.50
2022-09-13T07:19:07.360Z,21.60
2022-09-13T07:21:36.385Z,21.60
2022-09-13T07:24:04.835Z,21.60
2022-09-13T07:26:32.879Z,21.50
2022-09-13T07:29:05.405Z,21.50
2022-09-13T07:31:34.753Z,21.60
2022-09-13T07:34:04.684Z,21.50
2022-09-13T07:36:34.302Z,21.50
2022-09-13T07:39:02.697Z,21.50
2022-09-13T07:41:31.646Z,21.50
2022-09-13T07:44:01.646Z,21.50
2022-09-13T07:46:33.551Z,21.60
2022-09-13T07:49:02.312Z,21.60
2022-09-13T07:51:31.290Z,21.60
2022-09-13T07:54:01.588Z,21.50
2022-09-13T07:56:30.842Z,21.50
2022-09-13T07:59:00.886Z,21.50
2022-09-13T08:01:31.496Z,21.50
2022-09-13T08:04:01.321Z,21.50
2022-09-13T08:06:30.628Z,21.50
2022-09-13T08:08:58.975Z,21.50
2022-09-13T08:11:29.480Z,21.50
2022-09-13T08:13:57.639Z,21.50
2022-09-13T08:16:26.488Z,21.50
2022-09-13T08:18:57.174Z,21.50
2022-09-13T08:21:26.133Z,21.50
2022-09-13T08:23:59.716Z,21.50
2022-09-13T08:26:28.038Z,21.50
2022-09-13T08:28:58.236Z,21.60
2022-09-13T08:31:26.535Z,21.50
2022-09-13T08:33:56.067Z,21.50
2022-09-13T08:36:25.065Z,21.50
2022-09-13T08:38:55.717Z,21.50
2022-09-13T08:41:47.888Z,21.50
2022-09-13T08:44:23.727Z,21.50
2022-09-13T08:46:51.858Z,21.50
2022-09-13T08:49:24.743Z,21.50
2022-09-13T08:51:55.589Z,21.50
2022-09-13T08:54:23.601Z,21.50
2022-09-13T08:57:00.198Z,21.50
2022-09-13T08:59:46.337Z,21.50
2022-09-13T09:02:25.730Z,21.50
2022-09-13T09:05:03.745Z,21.50
2022-09-13T09:07:38.167Z,21.50
2022-09-13T09:10:12.698Z,21.50
2022-09-13T09:12:44.387Z,21.50
2022-09-13T09:15:17.438Z,21.50
2022-09-13T09:17:54.891Z,21.50
2022-09-13T09:20:31.970Z,21.50
2022-09-13T09:23:03.961Z,21.50
2022-09-13T09:25:33.031Z,21.50
2022-09-13T09:28:00.947Z,21.50
2022-09-13T09:30:38.239Z,21.50
2022-09-13T09:33:21.648Z,21.50
2022-09-13T09:36:01.154Z,21.50
2022-09-13T09:38:41.450Z,21.50
2022-09-13T09:41:22.810Z,21.50
2022-09-13T09:43:56.512Z,21.50
2022-09-13T09:46:29.052Z,21.50
2022-09-13T09:49:03.015Z,21.50
2022-09-13T09:51:33.159Z,21.50
2022-09-13T09:54:05.184Z,21.50
2022-09-13T09:56:34.941Z,21.50
2022-09-13T09:59:03.437Z,21.50
2022-09-13T10:01:33.209Z,21.50
2022-09-13T10:04:08.619Z,21.50
2022-09-13T10:06:40.413Z,21.50
2022-09-13T10:09:16.788Z,21.50
2022-09-13T10:11:48.885Z,21.50
2022-09-13T10:14:37.369Z,21.50
2022-09-13T10:17:15.329Z,21.50
2022-09-13T10:19:51.712Z,21.50
2022-09-13T10:22:22.410Z,21.50
2022-09-13T10:24:51.269Z,21.50
2022-09-13T10:27:26.145Z,21.50
2022-09-13T10:29:59.631Z,21.50
2022-09-13T10:32:28.987Z,21.50
2022-09-13T10:35:02.198Z,21.40
2022-09-13T10:37:34.518Z,21.40
2022-09-13T10:40:07.090Z,21.50
2022-09-13T10:42:36.015Z,21.50
2022-09-13T10:45:06.403Z,21.50
2022-09-13T10:47:39.811Z,21.50
2022-09-13T10:50:20.683Z,21.50
2022-09-13T10:52:52.056Z,21.40
2022-09-13T10:55:30.284Z,21.40
2022-09-13T10:58:14.775Z,21.50
2022-09-13T11:00:58.093Z,21.50
2022-09-13T11:03:35.254Z,21.50
2022-09-13T11:06:09.756Z,21.40
2022-09-13T11:08:53.574Z,21.40
2022-09-13T11:11:27.406Z,21.40
2022-09-13T11:14:15.091Z,21.40
2022-09-13T11:16:55.808Z,21.40
2022-09-13T11:19:53.009Z,21.50
2022-09-13T11:22:39.192Z,21.50
2022-09-13T11:25:30.966Z,21.40
2022-09-13T11:28:08.451Z,21.40
2022-09-13T11:30:48.842Z,21.50
2022-09-13T11:33:31.214Z,21.40
2022-09-13T11:36:24.974Z,21.40
2022-09-13T11:39:04.101Z,21.40
2022-09-13T11:41:44.325Z,21.50
2022-09-13T11:44:33.209Z,21.40
2022-09-13T11:47:09.302Z,21.40
2022-09-13T11:50:03.348Z,21.40
2022-09-13T11:52:45.827Z,21.40
2022-09-13T11:55:18.830Z,21.40
2022-09-13T11:57:50.836Z,21.50
2022-09-13T12:00:23.454Z,21.40
2022-09-13T12:03:00.889Z,21.40
2022-09-13T12:05:34.450Z,21.50
2022-09-13T12:08:07.782Z,21.50
2022-09-13T12:10:40.881Z,21.50
2022-09-13T12:13:16.242Z,21.40
2022-09-13T12:15:47.674Z,21.40
2022-09-13T12:18:20.590Z,21.40
2022-09-13T12:20:51.437Z,21.50
2022-09-13T12:23:23.577Z,21.40
2022-09-13T12:25:57.657Z,21.50
2022-09-13T12:28:30.784Z,21.50
2022-09-13T12:31:03.491Z,21.50
2022-09-13T12:33:31.543Z,21.50
2022-09-13T12:36:18.028Z,21.50
2022-09-13T12:39:21.893Z,21.50
2022-09-13T12:42:06.442Z,21.50
2022-09-13T12:44:51.397Z,21.50
2022-09-13T12:47:55.194Z,21.50
2022-09-13T12:50:47.293Z,21.50
2022-09-13T12:53:32.534Z,21.50
2022-09-13T12:56:18.934Z,21.50
2022-09-13T12:59:21.682Z,21.50
2022-09-13T13:01:52.606Z,21.50
2022-09-13T13:04:24.360Z,21.50
2022-09-13T13:06:55.302Z,21.50
2022-09-13T13:09:29.498Z,21.50
2022-09-13T13:11:59.219Z,21.50
2022-09-13T13:14:47.112Z,21.50
2022-09-13T13:17:43.013Z,21.50
2022-09-13T13:20:43.105Z,21.50
2022-09-13T13:23:27.562Z,21.50
2022-09-13T13:26:02.326Z,21.50
2022-09-13T13:29:05.802Z,21.50
2022-09-13T13:31:39.286Z,21.50
2022-09-13T13:34:32.105Z,21.50
2022-09-13T13:37:04.175Z,21.50
2022-09-13T13:39:41.143Z,21.50
2022-09-13T13:42:25.223Z,21.50
2022-09-13T13:45:17.646Z,21.50
2022-09-13T13:48:08.375Z,21.50
2022-09-13T13:51:18.561Z,21.50
2022-09-13T13:53:51.630Z,21.50
2022-09-13T13:56:34.629Z,21.50
2022-09-13T13:59:10.135Z,21.50
2022-09-13T14:01:45.815Z,21.50
2022-09-13T14:04:52.970Z,21.50
2022-09-13T14:10:52.161Z,21.50
2022-09-13T14:13:36.726Z,21.50
2022-09-13T14:16:11.067Z,21.50
2022-09-13T14:19:17.620Z,21.50
2022-09-13T14:21:46.030Z,21.50
2022-09-13T14:24:23.450Z,21.60
2022-09-13T14:26:55.781Z,21.60
2022-09-13T14:29:25.763Z,21.60
2022-09-13T14:31:56.169Z,21.50
2022-09-13T14:34:28.098Z,21.60
2022-09-13T14:36:57.653Z,21.60
2022-09-13T14:39:26.821Z,21.60
2022-09-13T14:42:14.205Z,21.60
2022-09-13T14:44:45.641Z,21.60
2022-09-13T14:47:19.887Z,21.60
2022-09-13T14:49:51.636Z,21.60
2022-09-13T14:52:25.534Z,21.60
2022-09-13T14:54:57.200Z,21.60
2022-09-13T14:57:33.841Z,21.60
2022-09-13T15:00:04.996Z,21.60
2022-09-13T15:02:38.442Z,21.60
2022-09-13T15:05:12.773Z,21.60
2022-09-13T15:07:41.531Z,21.60
2022-09-13T15:10:21.981Z,21.60
2022-09-13T15:13:03.331Z,21.60
2022-09-13T15:15:36.503Z,21.60
2022-09-13T15:18:07.622Z,21.60
2022-09-13T15:20:54.526Z,21.60
2022-09-13T15:23:26.238Z,21.60
2022-09-13T15:25:55.897Z,21.60
2022-09-13T15:28:27.985Z,21.60
2022-09-13T15:30:57.962Z,21.60
2022-09-13T15:33:28.739Z,21.60
2022-09-13T15:36:15.552Z,21.60
2022-09-13T15:39:00.367Z,21.60
2022-09-13T15:41:32.181Z,21.60
2022-09-13T15:44:02.761Z,21.60
2022-09-13T15:46:31.274Z,21.60
2022-09-13T15:49:01.003Z,21.70
2022-09-13T15:51:28.998Z,21.60
2022-09-13T15:53:57.635Z,21.60
2022-09-13T15:56:37.822Z,21.60
2022-09-13T15:59:07.022Z,21.70
2022-09-13T16:01:34.873Z,21.60
2022-09-13T16:04:05.034Z,21.70
2022-09-13T16:06:32.887Z,21.70
2022-09-13T16:09:01.043Z,21.70
2022-09-13T16:11:29.487Z,21.70
2022-09-13T16:13:57.299Z,21.70
2022-09-13T16:16:26.499Z,21.70
2022-09-13T16:18:54.361Z,21.70
2022-09-13T16:21:22.167Z,21.70
2022-09-13T16:23:49.958Z,21.70
2022-09-13T16:26:17.817Z,21.70
2022-09-13T16:28:45.670Z,21.70
2022-09-13T16:31:15.027Z,21.70
2022-09-13T16:33:44.376Z,21.70
2022-09-13T16:36:13.068Z,21.70
2022-09-13T16:38:40.909Z,21.70
2022-09-13T16:41:09.256Z,21.70
2022-09-13T16:43:37.061Z,21.70
2022-09-13T16:46:08.092Z,21.70
2022-09-13T16:48:36.231Z,21.70
2022-09-13T16:51:06.632Z,21.70
2022-09-13T16:53:35.149Z,21.70
2022-09-13T16:56:07.041Z,21.70
2022-09-13T16:58:37.323Z,21.70
2022-09-13T17:01:05.638Z,21.70
2022-09-13T17:03:34.920Z,21.70
2022-09-13T17:06:05.942Z,21.70
2022-09-13T17:08:34.965Z,21.70
2022-09-13T17:11:06.769Z,21.70
2022-09-13T17:13:34.961Z,21.70
2022-09-13T17:16:03.339Z,21.70
2022-09-13T17:18:31.254Z,21.80
2022-09-13T17:21:00.824Z,21.80
2022-09-13T17:23:29.993Z,21.80
2022-09-13T17:25:57.872Z,21.80
2022-09-13T17:28:25.737Z,21.80
2022-09-13T17:30:53.753Z,21.70
2022-09-13T17:33:21.746Z,21.80
2022-09-13T17:35:59.719Z,21.80
2022-09-13T17:38:29.053Z,21.80
2022-09-13T17:41:00.987Z,21.80
2022-09-13T17:43:28.870Z,21.80
2022-09-13T17:45:56.741Z,21.80
2022-09-13T17:48:25.123Z,21.80
2022-09-13T17:50:53.249Z,21.80
2022-09-13T17:53:21.114Z,21.80
2022-09-13T17:55:51.274Z,21.80
2022-09-13T17:58:19.061Z,21.80
2022-09-13T18:00:46.927Z,21.80
2022-09-13T18:03:14.786Z,21.80
2022-09-13T18:05:42.679Z,21.80
2022-09-13T18:08:10.476Z,21.80
2022-09-13T18:10:58.354Z,21.80
2022-09-13T18:13:27.664Z,21.80
2022-09-13T18:16:00.646Z,21.80
2022-09-13T18:18:28.773Z,21.80
2022-09-13T18:20:58.081Z,21.80
2022-09-13T18:23:28.490Z,21.80
2022-09-13T18:26:02.959Z,21.80
2022-09-13T18:28:34.241Z,21.80
2022-09-13T18:31:05.704Z,21.80
2022-09-13T18:33:34.144Z,21.80
2022-09-13T18:36:03.906Z,21.80
2022-09-13T18:38:34.524Z,21.80
2022-09-13T18:41:05.242Z,21.90
2022-09-13T18:43:36.262Z,21.90
2022-09-13T18:46:06.275Z,21.80
2022-09-13T18:48:36.336Z,21.90
2022-09-13T18:51:04.970Z,21.90
2022-09-13T18:53:35.453Z,21.90
2022-09-13T18:56:04.776Z,21.90
2022-09-13T18:58:34.720Z,21.90
2022-09-13T19:01:04.805Z,21.90
2022-09-13T19:03:33.886Z,21.90
2022-09-13T19:06:12.756Z,21.90
2022-09-13T19:08:41.301Z,21.90
2022-09-13T19:11:19.325Z,21.90
2022-09-13T19:13:58.991Z,21.90
2022-09-13T19:16:26.940Z,21.90
2022-09-13T19:18:56.269Z,21.90
2022-09-13T19:21:27.324Z,21.90
2022-09-13T19:24:00.041Z,21.90
2022-09-13T19:26:30.090Z,21.90
2022-09-13T19:29:04.304Z,21.90
2022-09-13T19:31:33.763Z,21.90
2022-09-13T19:34:02.261Z,21.90
2022-09-13T19:36:34.233Z,21.90
2022-09-13T19:39:02.956Z,21.90
2022-09-13T19:41:31.580Z,21.90
2022-09-13T19:44:02.350Z,21.90
2022-09-13T19:46:32.707Z,21.90
2022-09-13T19:49:01.746Z,21.90
2022-09-13T19:51:31.389Z,21.90
2022-09-13T19:54:00.527Z,21.90
2022-09-13T19:56:29.886Z,21.90
2022-09-13T19:58:58.472Z,21.90
2022-09-13T20:01:29.963Z,21.90
2022-09-13T20:03:59.646Z,21.90
2022-09-13T20:06:28.884Z,21.90
2022-09-13T20:09:00.116Z,21.90
2022-09-13T20:11:29.152Z,21.90
2022-09-13T20:13:59.218Z,21.90
2022-09-13T20:16:31.099Z,22.00
2022-09-13T20:18:59.806Z,22.00
2022-09-13T20:21:31.142Z,22.00
2022-09-13T20:24:02.338Z,22.00
2022-09-13T20:26:31.626Z,21.90
2022-09-13T20:29:00.814Z,22.00
2022-09-13T20:31:31.489Z,22.00
2022-09-13T20:34:00.909Z,22.00
2022-09-13T20:36:31.078Z,22.00
2022-09-13T20:39:03.161Z,22.00
2022-09-13T20:41:32.163Z,22.00
2022-09-13T20:44:00.920Z,22.00
2022-09-13T20:46:31.505Z,22.00
2022-09-13T20:48:59.552Z,22.00
2022-09-13T20:51:31.495Z,22.00
2022-09-13T20:54:01.875Z,22.00
2022-09-13T20:56:34.165Z,22.00
2022-09-13T20:59:02.716Z,22.00
2022-09-13T21:01:32.911Z,22.00
2022-09-13T21:04:01.661Z,22.00
2022-09-13T21:06:31.842Z,22.00
2022-09-13T21:08:59.695Z,22.00
2022-09-13T21:11:30.327Z,22.00
2022-09-13T21:14:00.477Z,22.00
2022-09-13T21:16:33.072Z,22.00
2022-09-13T21:19:01.705Z,22.00
2022-09-13T21:21:31.328Z,22.00
2022-09-13T21:24:00.353Z,22.00
2022-09-13T21:26:29.927Z,22.00
2022-09-13T21:28:58.748Z,22.00
2022-09-13T21:31:28.143Z,22.00
2022-09-13T21:33:58.954Z,22.00
2022-09-13T21:36:27.581Z,22.00
2022-09-13T21:38:56.352Z,22.00
2022-09-13T21:41:25.693Z,22.00
2022-09-13T21:43:54.022Z,22.00
2022-09-13T21:46:23.782Z,22.00
2022-09-13T21:48:53.719Z,22.00
2022-09-13T21:51:24.828Z,22.00
2022-09-13T21:53:58.441Z,22.00
2022-09-13T21:56:27.843Z,22.00
2022-09-13T21:58:58.482Z,22.00
2022-09-13T22:01:28.638Z,22.00
2022-09-13T22:03:56.765Z,22.00
2022-09-13T22:06:30.304Z,22.00
2022-09-13T22:09:02.248Z,22.00
2022-09-13T22:11:31.961Z,22.10
2022-09-13T22:14:01.981Z,22.00
2022-09-13T22:16:32.197Z,22.10
2022-09-13T22:19:07.959Z,22.10
2022-09-13T22:21:40.077Z,22.00
2022-09-13T22:24:09.190Z,22.00
2022-09-13T22:26:40.531Z,22.10
2022-09-13T22:29:09.769Z,22.10
2022-09-13T22:31:40.163Z,22.10
2022-09-13T22:34:09.396Z,22.00
2022-09-13T22:36:38.917Z,22.10
2022-09-13T22:39:06.739Z,22.10
2022-09-13T22:41:35.470Z,22.10
2022-09-13T22:44:04.198Z,22.10
2022-09-13T22:46:34.565Z,22.10
2022-09-13T22:49:03.109Z,22.10
2022-09-13T22:51:31.383Z,22.10
2022-09-13T22:54:06.242Z,22.10
2022-09-13T22:56:36.533Z,22.10
2022-09-13T22:59:07.104Z,22.10
2022-09-13T23:01:36.399Z,22.10
2022-09-13T23:04:04.772Z,22.10
2022-09-13T23:06:33.038Z,22.10
2022-09-13T23:09:03.744Z,22.10
2022-09-13T23:11:32.983Z,22.10
2022-09-13T23:14:02.723Z,22.10
2022-09-13T23:16:32.682Z,22.10
2022-09-13T23:19:01.020Z,22.10
2022-09-13T23:21:32.293Z,22.10
2022-09-13T23:24:02.069Z,22.10
2022-09-13T23:26:30.101Z,22.10
2022-09-13T23:28:59.401Z,22.10
2022-09-13T23:31:28.942Z,22.10
2022-09-13T23:33:58.478Z,22.10
2022-09-13T23:36:28.584Z,22.10
2022-09-13T23:38:59.097Z,22.10
2022-09-13T23:41:28.316Z,22.10
2022-09-13T23:43:56.174Z,22.10
2022-09-13T23:46:24.092Z,22.10
2022-09-13T23:48:52.198Z,22.10
2022-09-13T23:51:22.899Z,22.10
2022-09-13T23:53:52.045Z,22.10
2022-09-13T23:56:20.191Z,22.10
2022-09-13T23:58:49.416Z,22.10
